Time;durP1;ratioP1;P1;durP2;ratioP2;P2;SDS_P1;SDS_P2;PMS_P1;PMS_P2;Temp;Humidity;BMP_temperature;BMP_pressure;BME280_temperature;BME280_humidity;BME280_pressure;Samples;Min_cycle;Max_cycle;Signal;HPM_P1;HPM_P2
2022/09/04 00:02:41;;;;;;;2.30;1.65;;;25.70;41.80;;;;;;5027135;28;20048;-51
2022/09/04 00:05:22;;;;;;;2.30;1.48;;;25.80;41.90;;;;;;5025074;28;20148;-52
2022/09/04 00:08:06;;;;;;;1.92;1.67;;;25.70;41.90;;;;;;5023201;28;20044;-51
2022/09/04 00:10:37;;;;;;;2.30;1.70;;;25.70;42.00;;;;;;5026255;28;20050;-52
2022/09/04 00:13:26;;;;;;;4.20;1.70;;;25.70;42.00;;;;;;5025927;28;20030;-51
2022/09/04 00:16:11;;;;;;;3.40;1.90;;;25.70;42.20;;;;;;5028528;28;20033;-53
2022/09/04 00:19:08;;;;;;;2.63;1.83;;;25.70;42.20;;;;;;5027891;28;20109;-49
2022/09/04 00:21:52;;;;;;;1.90;1.70;;;25.70;42.30;;;;;;5019404;28;20025;-50
2022/09/04 00:24:24;;;;;;;1.98;1.33;;;25.70;42.50;;;;;;5029400;28;20025;-50
2022/09/04 00:27:00;;;;;;;2.17;1.65;;;25.60;42.50;;;;;;5031604;28;20048;-49
2022/09/04 00:30:04;;;;;;;2.85;1.63;;;25.60;42.50;;;;;;5026556;28;20110;-51
2022/09/04 00:32:51;;;;;;;1.95;1.60;;;25.60;42.60;;;;;;5016788;28;20134;-51
2022/09/04 00:35:19;;;;;;;3.00;1.65;;;25.60;42.70;;;;;;5026621;28;20021;-52
2022/09/04 00:38:01;;;;;;;2.75;2.00;;;25.60;42.80;;;;;;5028172;28;20353;-50
2022/09/04 00:40:43;;;;;;;2.20;1.73;;;25.60;42.90;;;;;;5030014;28;20531;-50
2022/09/04 00:43:27;;;;;;;2.45;1.70;;;25.60;43.00;;;;;;5031384;28;20348;-52
2022/09/04 00:46:17;;;;;;;2.05;1.50;;;25.60;43.10;;;;;;5029679;28;20033;-54
2022/09/04 00:49:10;;;;;;;2.78;1.50;;;25.60;43.10;;;;;;5027463;28;20107;-54
2022/09/04 00:52:05;;;;;;;2.47;1.65;;;25.60;43.20;;;;;;5028708;28;20029;-54
2022/09/04 00:54:40;;;;;;;2.42;1.65;;;25.60;43.30;;;;;;5029010;28;20048;-52
2022/09/04 00:57:29;;;;;;;2.45;1.80;;;25.60;43.40;;;;;;5027295;28;20069;-53
2022/09/04 01:00:08;;;;;;;2.47;1.80;;;25.60;43.50;;;;;;5027356;28;20140;-52
2022/09/04 01:02:43;;;;;;;2.35;1.55;;;25.60;43.60;;;;;;5027908;28;20415;-50
2022/09/04 01:05:22;;;;;;;2.55;1.70;;;25.50;43.60;;;;;;5027717;28;20048;-53
2022/09/04 01:08:30;;;;;;;2.45;1.63;;;25.60;43.90;;;;;;5019800;28;20034;-55
2022/09/04 01:11:11;;;;;;;1.80;1.48;;;25.60;43.90;;;;;;5026396;28;20045;-50
2022/09/04 01:14:11;;;;;;;1.98;1.58;;;25.50;43.90;;;;;;5029243;28;20041;-54
2022/09/04 01:17:08;;;;;;;2.50;1.60;;;25.50;44.00;;;;;;5029070;28;20034;-53
2022/09/04 01:19:54;;;;;;;2.88;1.73;;;25.50;44.00;;;;;;5016918;28;20073;-52
2022/09/04 01:22:25;;;;;;;2.55;1.85;;;25.50;44.10;;;;;;5029346;28;20044;-52
2022/09/04 01:25:04;;;;;;;2.30;1.58;;;25.50;44.20;;;;;;5027583;28;20437;-53
2022/09/04 01:27:48;;;;;;;2.10;1.60;;;25.50;44.30;;;;;;5028250;28;20042;-52
2022/09/04 01:30:17;;;;;;;2.28;1.52;;;25.50;44.30;;;;;;5029579;28;20059;-53
2022/09/04 01:32:52;;;;;;;1.40;1.30;;;25.50;44.40;;;;;;5023406;28;20030;-52
2022/09/04 01:35:43;;;;;;;2.03;1.42;;;25.50;44.50;;;;;;5038713;28;20350;-55
2022/09/04 01:38:15;;;;;;;2.00;1.48;;;25.50;44.50;;;;;;5029293;28;20345;-49
2022/09/04 01:41:02;;;;;;;2.85;1.77;;;25.50;44.60;;;;;;5029191;28;20452;-52
2022/09/04 01:43:28;;;;;;;2.30;1.45;;;25.40;44.60;;;;;;5025886;28;20030;-53
2022/09/04 01:46:13;;;;;;;2.25;1.55;;;25.40;45.20;;;;;;5028875;28;20368;-50
2022/09/04 01:49:12;;;;;;;1.70;1.60;;;25.40;44.70;;;;;;5017971;28;20029;-54
2022/09/04 01:51:50;;;;;;;2.00;1.80;;;25.40;44.80;;;;;;5028717;28;20083;-52
2022/09/04 01:54:37;;;;;;;1.75;1.50;;;25.40;44.80;;;;;;5027856;28;20346;-54
2022/09/04 01:57:13;;;;;;;2.55;1.60;;;25.40;44.90;;;;;;5030679;28;20042;-54
2022/09/04 02:00:09;;;;;;;2.13;1.75;;;25.40;45.00;;;;;;5028278;28;20040;-56
2022/09/04 02:02:37;;;;;;;2.53;1.85;;;25.40;45.10;;;;;;5024018;28;20084;-52
2022/09/04 02:05:29;;;;;;;2.50;1.40;;;25.40;45.20;;;;;;5025351;28;20034;-52
2022/09/04 02:08:29;;;;;;;2.67;2.05;;;25.40;45.20;;;;;;5028815;28;20057;-50
2022/09/04 02:11:04;;;;;;;2.60;1.80;;;25.40;45.20;;;;;;5026277;28;20072;-55
2022/09/04 02:13:43;;;;;;;2.60;1.65;;;25.40;45.40;;;;;;5026738;28;20041;-50
2022/09/04 02:16:59;;;;;;;2.03;1.63;;;25.40;45.50;;;;;;5029146;28;20025;-53
2022/09/04 02:19:32;;;;;;;2.38;1.58;;;25.40;45.50;;;;;;5000600;28;20064;-51
2022/09/04 02:22:19;;;;;;;2.03;1.40;;;25.40;45.60;;;;;;5028641;28;20082;-53
2022/09/04 02:25:00;;;;;;;1.42;1.30;;;25.40;45.60;;;;;;5027912;28;20360;-54
2022/09/04 02:27:34;;;;;;;2.13;1.60;;;25.40;45.70;;;;;;5024007;28;20420;-53
2022/09/04 02:30:09;;;;;;;4.68;1.83;;;25.30;46.30;;;;;;5026996;28;20022;-54
2022/09/04 02:32:52;;;;;;;4.13;1.63;;;25.30;45.70;;;;;;5027003;28;20029;-51
2022/09/04 02:35:40;;;;;;;2.40;1.50;;;25.40;45.90;;;;;;5024125;28;20391;-51
2022/09/04 02:38:16;;;;;;;2.58;1.80;;;25.30;45.80;;;;;;5026007;28;20032;-51
2022/09/04 02:41:10;;;;;;;2.65;1.55;;;25.30;45.90;;;;;;5027710;28;20112;-51
2022/09/04 02:43:57;;;;;;;1.75;1.42;;;25.30;46.00;;;;;;5029178;28;20060;-49
2022/09/04 02:46:53;;;;;;;2.47;1.70;;;25.30;46.00;;;;;;5028304;28;20049;-49
2022/09/04 02:49:47;;;;;;;2.03;1.55;;;25.30;46.00;;;;;;4995259;28;20594;-54
2022/09/04 02:52:32;;;;;;;1.70;1.38;;;25.30;46.10;;;;;;5027508;28;20037;-50
2022/09/04 02:55:18;;;;;;;2.00;1.65;;;25.30;46.10;;;;;;5027359;28;20034;-48
2022/09/04 02:57:58;;;;;;;2.22;1.67;;;25.30;46.20;;;;;;5028081;28;20164;-53
2022/09/04 03:00:54;;;;;;;2.38;1.58;;;25.30;46.20;;;;;;5026673;28;20029;-51
2022/09/04 03:03:30;;;;;;;2.50;1.70;;;25.20;46.20;;;;;;5027008;28;20036;-49
2022/09/04 03:06:12;;;;;;;2.03;1.40;;;25.30;46.30;;;;;;5027620;28;20037;-53
2022/09/04 03:08:58;;;;;;;2.40;1.90;;;25.30;46.40;;;;;;5028128;28;20113;-55
2022/09/04 03:11:54;;;;;;;2.08;1.58;;;25.30;46.40;;;;;;5027934;28;20042;-51
2022/09/04 03:14:37;;;;;;;2.65;1.73;;;25.20;46.40;;;;;;5024251;28;20041;-51
2022/09/04 03:17:26;;;;;;;2.63;1.35;;;25.20;46.40;;;;;;5024346;28;20377;-53
2022/09/04 03:20:14;;;;;;;2.83;1.65;;;25.20;46.40;;;;;;5025783;28;20432;-51
2022/09/04 03:22:46;;;;;;;1.95;1.63;;;25.20;46.50;;;;;;5026734;28;21749;-52
2022/09/04 03:25:33;;;;;;;2.80;1.80;;;25.20;46.50;;;;;;5024111;28;20025;-51
2022/09/04 03:28:00;;;;;;;2.10;1.90;;;25.20;46.60;;;;;;5028404;28;20071;-51
2022/09/04 03:30:30;;;;;;;2.50;1.67;;;25.20;46.60;;;;;;5025302;28;20052;-52
2022/09/04 03:33:06;;;;;;;3.85;2.05;;;25.20;46.70;;;;;;5021200;28;20040;-53
2022/09/04 03:35:31;;;;;;;3.90;1.80;;;25.20;46.80;;;;;;5024264;28;20092;-53
2022/09/04 03:38:16;;;;;;;3.03;1.95;;;25.20;46.80;;;;;;5027853;28;20025;-53
2022/09/04 03:40:56;;;;;;;2.42;1.52;;;25.20;46.80;;;;;;5027877;28;20036;-50
2022/09/04 03:43:35;;;;;;;2.42;1.80;;;25.20;46.90;;;;;;5026903;28;20289;-50
2022/09/04 03:46:29;;;;;;;3.08;1.83;;;25.20;46.90;;;;;;5026345;28;20052;-53
2022/09/04 03:49:34;;;;;;;2.10;1.70;;;25.20;47.00;;;;;;5026532;28;20053;-51
2022/09/04 03:52:24;;;;;;;2.05;1.50;;;25.20;47.00;;;;;;5025670;28;20041;-54
2022/09/04 03:55:12;;;;;;;2.42;1.80;;;25.20;47.00;;;;;;5029441;28;20033;-50
2022/09/04 03:58:04;;;;;;;2.53;1.73;;;25.10;47.00;;;;;;5032186;28;20033;-52
2022/09/04 04:00:55;;;;;;;2.90;2.05;;;25.10;47.10;;;;;;5030243;28;20029;-50
2022/09/04 04:03:47;;;;;;;2.03;1.60;;;25.10;47.10;;;;;;5030192;28;20017;-51
2022/09/04 04:06:24;;;;;;;3.47;2.03;;;25.10;47.10;;;;;;5028268;28;20125;-53
2022/09/04 04:09:21;;;;;;;2.65;1.88;;;25.10;47.20;;;;;;5029668;28;20124;-53
2022/09/04 04:12:11;;;;;;;2.58;2.10;;;25.10;47.20;;;;;;5030399;28;20361;-51
2022/09/04 04:14:59;;;;;;;1.98;1.70;;;25.10;47.20;;;;;;5001942;28;20045;-51
2022/09/04 04:17:35;;;;;;;3.05;2.05;;;25.10;47.30;;;;;;5027179;28;20099;-53
2022/09/04 04:20:29;;;;;;;2.33;1.85;;;25.10;47.40;;;;;;5030923;28;20029;-47
2022/09/04 04:22:57;;;;;;;2.38;1.83;;;25.10;47.40;;;;;;5030180;28;20048;-53
2022/09/04 04:25:48;;;;;;;2.75;1.90;;;25.10;47.50;;;;;;5031166;28;20509;-50
2022/09/04 04:28:55;;;;;;;2.30;1.70;;;25.10;47.50;;;;;;5031600;28;20448;-53
2022/09/04 04:32:10;;;;;;;3.17;1.80;;;25.10;47.50;;;;;;5022990;28;20175;-49
2022/09/04 04:34:50;;;;;;;3.17;2.08;;;25.10;47.50;;;;;;4963429;28;20058;-48
2022/09/04 04:37:40;;;;;;;2.50;1.80;;;25.00;47.50;;;;;;4961093;28;20027;-50
2022/09/04 04:40:18;;;;;;;2.95;1.85;;;25.00;47.50;;;;;;5011260;28;20037;-47
2022/09/04 04:43:13;;;;;;;2.78;2.10;;;25.00;47.50;;;;;;5030886;28;20041;-50
2022/09/04 04:46:01;;;;;;;2.55;1.92;;;25.00;47.60;;;;;;5027571;28;20180;-47
2022/09/04 04:48:55;;;;;;;2.60;2.00;;;25.00;47.60;;;;;;5026249;28;20033;-50
2022/09/04 04:51:41;;;;;;;2.22;1.70;;;25.00;47.60;;;;;;5029696;28;20103;-49
2022/09/04 04:54:52;;;;;;;2.92;2.17;;;25.00;47.60;;;;;;5025365;28;20025;-49
2022/09/04 04:57:46;;;;;;;2.92;1.92;;;25.00;47.60;;;;;;5030063;28;20030;-49
2022/09/04 05:00:47;;;;;;;4.40;2.13;;;25.00;47.70;;;;;;5026162;28;20341;-49
2022/09/04 05:03:23;;;;;;;2.55;1.60;;;25.00;47.70;;;;;;4979489;28;20044;-53
2022/09/04 05:05:55;;;;;;;2.15;1.55;;;25.00;47.70;;;;;;5028588;28;20049;-50
2022/09/04 05:08:24;;;;;;;3.42;2.22;;;25.00;47.70;;;;;;5028815;28;20117;-53
2022/09/04 05:10:58;;;;;;;2.47;1.77;;;24.90;47.70;;;;;;5026389;28;20045;-50
2022/09/04 05:13:55;;;;;;;2.85;2.00;;;25.00;47.70;;;;;;5028687;28;20104;-48
2022/09/04 05:17:04;;;;;;;2.38;1.95;;;25.00;47.70;;;;;;5026607;28;20029;-48
2022/09/04 05:19:48;;;;;;;3.00;1.98;;;25.00;47.70;;;;;;4988943;28;20045;-50
2022/09/04 05:22:24;;;;;;;2.78;2.00;;;24.90;47.70;;;;;;5030482;28;20038;-54
2022/09/04 05:25:17;;;;;;;2.13;1.92;;;25.00;47.70;;;;;;5030981;28;20029;-53
2022/09/04 05:28:21;;;;;;;2.20;1.90;;;24.90;47.70;;;;;;5028019;28;20038;-53
2022/09/04 05:31:06;;;;;;;2.87;1.90;;;24.90;47.80;;;;;;5027830;28;20037;-53
2022/09/04 05:33:38;;;;;;;;;;;24.90;47.70;;;;;;5027264;28;20171;-50
2022/09/04 05:36:18;;;;;;;3.05;2.17;;;24.90;47.70;;;;;;5025241;28;19917;-53
2022/09/04 05:39:02;;;;;;;2.67;1.83;;;24.90;47.80;;;;;;5028565;28;20036;-49
2022/09/04 05:41:43;;;;;;;2.88;2.00;;;24.90;47.80;;;;;;5029570;28;20473;-51
2022/09/04 05:44:37;;;;;;;2.83;2.00;;;24.90;47.90;;;;;;5029072;28;20045;-56
2022/09/04 05:47:23;;;;;;;1.90;1.65;;;24.90;48.50;;;;;;5026758;28;20345;-52
2022/09/04 05:50:11;;;;;;;1.88;1.67;;;24.90;47.90;;;;;;5025703;28;20104;-52
2022/09/04 05:52:56;;;;;;;2.70;2.10;;;24.90;48.00;;;;;;5030096;28;20035;-50
2022/09/04 05:55:30;;;;;;;2.72;2.00;;;24.90;48.00;;;;;;5026027;28;20447;-51
2022/09/04 05:58:34;;;;;;;2.33;1.90;;;24.90;48.10;;;;;;5026870;28;20041;-52
2022/09/04 06:01:07;;;;;;;2.17;1.60;;;24.90;48.10;;;;;;5024414;28;20029;-53
2022/09/04 06:04:21;;;;;;;1.88;1.67;;;24.90;48.80;;;;;;5028295;28;20021;-55
2022/09/04 06:06:59;;;;;;;3.10;1.90;;;24.90;48.20;;;;;;5029461;28;20037;-54
2022/09/04 06:10:06;;;;;;;2.28;1.85;;;24.90;48.20;;;;;;5026895;28;20052;-53
2022/09/04 06:12:46;;;;;;;3.40;2.40;;;24.90;48.40;;;;;;5029388;28;20075;-51
2022/09/04 06:15:17;;;;;;;2.58;1.80;;;24.90;48.30;;;;;;5027873;28;20083;-54
2022/09/04 06:18:21;;;;;;;3.22;2.10;;;24.90;48.30;;;;;;5026644;28;20356;-52
2022/09/04 06:21:11;;;;;;;2.50;2.15;;;24.90;48.40;;;;;;4992655;28;20476;-52
2022/09/04 06:23:58;;;;;;;3.08;1.95;;;24.90;48.50;;;;;;5023958;28;20063;-52
2022/09/04 06:26:42;;;;;;;3.00;2.30;;;24.90;48.60;;;;;;5024633;28;20111;-52
2022/09/04 06:29:59;;;;;;;3.40;1.95;;;24.90;49.30;;;;;;5024879;28;20448;-51
2022/09/04 06:32:46;;;;;;;3.17;2.38;;;24.90;48.80;;;;;;4987379;28;20473;-50
2022/09/04 06:35:50;;;;;;;3.38;2.15;;;24.90;48.90;;;;;;5027133;28;20033;-52
2022/09/04 06:38:21;;;;;;;2.45;2.22;;;24.90;48.90;;;;;;5028600;28;20043;-53
2022/09/04 06:41:01;;;;;;;3.50;2.80;;;24.90;49.00;;;;;;5025999;28;20025;-56
2022/09/04 06:43:36;;;;;;;8.80;3.25;;;24.90;49.10;;;;;;5024365;28;20029;-51
2022/09/04 06:46:26;;;;;;;3.72;2.70;;;24.90;49.20;;;;;;5024551;28;20108;-51
2022/09/04 06:48:59;;;;;;;4.07;2.90;;;24.90;49.30;;;;;;5026618;28;21694;-51
2022/09/04 06:51:52;;;;;;;4.60;3.10;;;24.90;49.30;;;;;;5022775;28;20040;-55
2022/09/04 06:54:23;;;;;;;4.22;2.58;;;24.90;49.40;;;;;;5025024;28;20049;-52
2022/09/04 06:56:55;;;;;;;4.70;2.90;;;24.90;49.50;;;;;;5028076;28;20140;-54
2022/09/04 07:00:10;;;;;;;3.95;2.60;;;24.90;49.50;;;;;;5019900;28;20018;-53
2022/09/04 07:02:48;;;;;;;3.92;2.55;;;24.90;49.60;;;;;;4984692;28;20057;-53
2022/09/04 07:05:21;;;;;;;4.47;2.78;;;24.90;49.60;;;;;;5015666;28;20034;-54
2022/09/04 07:08:11;;;;;;;3.55;2.65;;;24.90;49.70;;;;;;5019226;28;20056;-52
2022/09/04 07:11:08;;;;;;;3.92;2.80;;;24.90;49.70;;;;;;5014944;28;20146;-51
2022/09/04 07:13:53;;;;;;;4.05;2.13;;;24.90;49.80;;;;;;5014832;28;20034;-51
2022/09/04 07:16:33;;;;;;;;;;;25.00;49.90;;;;;;5023751;28;20044;-53
2022/09/04 07:19:36;;;;;;;3.03;2.20;;;24.90;49.90;;;;;;5015502;28;19909;-51
2022/09/04 07:22:33;;;;;;;5.82;2.28;;;24.90;49.90;;;;;;5017841;28;20086;-55
2022/09/04 07:25:10;;;;;;;2.20;2.00;;;25.00;50.00;;;;;;5027737;28;20026;-56
2022/09/04 07:27:54;;;;;;;3.15;2.22;;;25.00;50.00;;;;;;5031748;28;20041;-53
2022/09/04 07:30:24;;;;;;;4.22;2.47;;;25.00;50.00;;;;;;5019049;28;20026;-53
2022/09/04 07:32:53;;;;;;;3.08;2.25;;;25.00;50.00;;;;;;5018898;28;20065;-51
2022/09/04 07:35:57;;;;;;;3.38;2.35;;;25.00;49.90;;;;;;5019362;28;20097;-51
2022/09/04 07:38:32;;;;;;;2.83;2.22;;;25.10;50.00;;;;;;4946808;29;20099;-55
2022/09/04 07:41:18;;;;;;;2.03;1.85;;;25.00;49.90;;;;;;5019022;28;20373;-52
2022/09/04 07:44:13;;;;;;;2.40;1.95;;;25.00;49.80;;;;;;5036887;28;20030;-54
2022/09/04 07:46:48;;;;;;;2.42;1.92;;;25.10;49.90;;;;;;5026500;28;20445;-55
2022/09/04 07:49:36;;;;;;;3.45;2.10;;;25.10;49.90;;;;;;5023709;28;20037;-52
2022/09/04 07:52:17;;;;;;;3.88;1.95;;;25.10;49.90;;;;;;5018703;28;20034;-53
2022/09/04 07:55:20;;;;;;;4.18;2.53;;;25.10;49.90;;;;;;5019333;28;20042;-53
2022/09/04 07:58:21;;;;;;;2.40;1.80;;;25.10;49.90;;;;;;5019181;28;20026;-55
2022/09/04 08:01:25;;;;;;;3.72;1.92;;;25.20;50.00;;;;;;5019274;28;20034;-51
2022/09/04 08:04:12;;;;;;;2.65;1.95;;;25.20;50.10;;;;;;4997616;28;20047;-55
2022/09/04 08:06:47;;;;;;;2.05;1.77;;;25.10;50.10;;;;;;5025971;28;20473;-52
2022/09/04 08:09:13;;;;;;;3.45;2.03;;;25.20;50.30;;;;;;5018585;28;20041;-52
2022/09/04 08:11:47;;;;;;;2.85;2.08;;;25.20;50.50;;;;;;5019029;28;20050;-54
2022/09/04 08:14:36;;;;;;;3.80;2.30;;;25.20;50.60;;;;;;5017929;28;20124;-53
2022/09/04 08:17:24;;;;;;;5.45;2.92;;;25.20;50.70;;;;;;5027661;28;20033;-56
2022/09/04 08:19:56;;;;;;;5.40;2.55;;;25.20;50.80;;;;;;5037920;28;20116;-52
2022/09/04 08:23:03;;;;;;;6.65;2.80;;;25.20;50.80;;;;;;5038076;28;20029;-53
2022/09/04 08:25:49;;;;;;;4.38;2.53;;;25.20;50.90;;;;;;4994991;28;20053;-53
2022/09/04 08:28:47;;;;;;;5.38;2.67;;;25.30;50.90;;;;;;5017577;28;20030;-53
2022/09/04 08:31:24;;;;;;;2.85;2.20;;;25.30;50.90;;;;;;5022831;28;20038;-53
2022/09/04 08:34:10;;;;;;;4.20;2.33;;;25.30;50.90;;;;;;5022526;28;20029;-54
2022/09/04 08:37:05;;;;;;;3.75;2.22;;;25.30;50.90;;;;;;5020224;28;20065;-56
2022/09/04 08:39:38;;;;;;;4.63;2.13;;;25.30;50.90;;;;;;5015096;28;20163;-52
2022/09/04 08:42:35;;;;;;;4.72;2.20;;;25.30;50.90;;;;;;5029466;28;20022;-56
2022/09/04 08:45:25;;;;;;;3.47;2.38;;;25.30;50.90;;;;;;5021798;28;20105;-54
2022/09/04 08:48:15;;;;;;;3.25;2.10;;;25.30;50.90;;;;;;5017761;28;20040;-52
2022/09/04 08:51:22;;;;;;;3.22;2.10;;;25.40;51.00;;;;;;5018397;28;20167;-53
2022/09/04 08:54:01;;;;;;;4.28;2.15;;;25.40;51.00;;;;;;5021443;28;20056;-53
2022/09/04 08:56:48;;;;;;;3.63;2.20;;;25.40;51.00;;;;;;5020576;28;20041;-54
2022/09/04 08:59:29;;;;;;;2.28;2.03;;;25.40;51.10;;;;;;5018500;28;20060;-54
2022/09/04 09:02:18;;;;;;;2.15;1.95;;;25.40;51.10;;;;;;5024634;28;20029;-53
2022/09/04 09:05:11;;;;;;;4.22;2.45;;;25.40;51.00;;;;;;5001221;28;20480;-54
2022/09/04 09:08:08;;;;;;;3.13;2.30;;;25.40;51.00;;;;;;5023802;28;20085;-60
2022/09/04 09:10:59;;;;;;;4.03;2.10;;;25.40;51.00;;;;;;5023424;28;20045;-60
2022/09/04 09:13:45;;;;;;;2.78;1.90;;;25.40;51.20;;;;;;5024169;28;20372;-58
2022/09/04 09:16:26;;;;;;;4.93;3.28;;;25.50;51.40;;;;;;5023381;28;20124;-59
2022/09/04 09:19:08;;;;;;;8.43;4.78;;;25.60;51.80;;;;;;5025441;28;20080;-59
2022/09/04 09:22:05;;;;;;;11.07;6.70;;;25.60;52.60;;;;;;5024423;28;20042;-57
2022/09/04 09:24:50;;;;;;;15.93;7.35;;;25.70;53.40;;;;;;5024079;28;20108;-52
2022/09/04 09:27:53;;;;;;;12.95;7.13;;;25.90;54.40;;;;;;5021156;28;20038;-60
2022/09/04 09:30:21;;;;;;;11.98;6.60;;;26.00;55.00;;;;;;5024530;28;20361;-53
2022/09/04 09:33:09;;;;;;;11.55;6.05;;;26.10;54.90;;;;;;5025801;28;20017;-52
2022/09/04 09:36:01;;;;;;;20.15;9.07;;;26.20;54.60;;;;;;5026927;28;20064;-51
2022/09/04 09:38:58;;;;;;;24.27;10.15;;;26.30;54.50;;;;;;5026164;28;20030;-57
2022/09/04 09:41:36;;;;;;;21.42;9.38;;;26.50;55.00;;;;;;5026102;28;20114;-53
2022/09/04 09:44:26;;;;;;;16.58;9.25;;;26.60;55.30;;;;;;5024309;28;20044;-57
2022/09/04 09:47:16;;;;;;;19.02;9.25;;;26.70;55.50;;;;;;5022177;28;20045;-54
2022/09/04 09:49:59;;;;;;;15.48;8.40;;;26.80;55.50;;;;;;5026424;28;20472;-54
2022/09/04 09:52:58;;;;;;;15.63;7.82;;;26.80;55.20;;;;;;5022171;28;20084;-54
2022/09/04 09:55:56;;;;;;;13.70;6.30;;;26.90;54.80;;;;;;5021978;28;20029;-54
2022/09/04 09:58:35;;;;;;;10.13;5.18;;;27.00;54.30;;;;;;5024117;28;20041;-60
2022/09/04 10:01:38;;;;;;;7.30;4.75;;;27.10;53.70;;;;;;5019548;28;20697;-53
2022/09/04 10:04:38;;;;;;;8.35;4.80;;;27.20;53.10;;;;;;5024211;28;20033;-58
2022/09/04 10:07:12;;;;;;;7.45;4.78;;;27.30;52.60;;;;;;5024293;28;20461;-52
2022/09/04 10:09:47;;;;;;;7.95;4.75;;;27.40;52.40;;;;;;5020319;28;20387;-54
2022/09/04 10:12:22;;;;;;;8.57;4.88;;;27.40;52.20;;;;;;5020854;28;20034;-57
2022/09/04 10:14:51;;;;;;;8.15;4.43;;;27.50;52.10;;;;;;5017840;28;20051;-58
2022/09/04 10:17:37;;;;;;;12.63;5.07;;;27.50;51.90;;;;;;5022815;28;20041;-52
2022/09/04 10:20:09;;;;;;;10.80;5.10;;;27.60;51.90;;;;;;5023289;28;20048;-59
2022/09/04 10:22:53;;;;;;;18.35;6.18;;;27.70;52.20;;;;;;5022243;28;20109;-59
2022/09/04 10:25:31;;;;;;;;;;;27.80;52.30;;;;;;5025492;28;20053;-55
2022/09/04 10:28:26;;;;;;;13.05;6.43;;;27.80;52.20;;;;;;5024426;28;20252;-55
2022/09/04 10:31:20;;;;;;;10.68;5.88;;;27.90;52.10;;;;;;4982699;28;20041;-54
2022/09/04 10:34:03;;;;;;;9.68;5.63;;;27.90;51.80;;;;;;5019158;28;20048;-56
2022/09/04 10:36:29;;;;;;;7.90;4.97;;;28.00;51.40;;;;;;5020490;28;20040;-50
2022/09/04 10:42:33;;;;;;;6.53;3.70;;;28.10;50.50;;;;;;5020077;28;20045;-51
2022/09/04 10:45:02;;;;;;;6.00;3.80;;;28.10;50.30;;;;;;5025922;28;20052;-62
2022/09/04 10:47:34;;;;;;;7.20;2.83;;;28.10;50.10;;;;;;5021003;28;20042;-59
2022/09/04 10:50:14;;;;;;;4.55;2.85;;;28.10;49.90;;;;;;5023796;28;20026;-55
2022/09/04 10:53:07;;;;;;;4.85;2.50;;;28.10;49.70;;;;;;5019232;28;20456;-58
2022/09/04 10:55:42;;;;;;;4.85;2.55;;;28.20;49.50;;;;;;5023500;28;20033;-59
2022/09/04 10:58:19;;;;;;;3.55;2.70;;;28.20;49.20;;;;;;5018412;28;20112;-55
2022/09/04 11:01:20;;;;;;;3.85;2.30;;;28.20;48.90;;;;;;5022262;28;20034;-58
2022/09/04 11:04:16;;;;;;;3.45;2.40;;;28.20;48.60;;;;;;4958067;28;20190;-53
2022/09/04 11:07:21;;;;;;;3.58;2.47;;;28.20;48.20;;;;;;5022544;28;20073;-58
2022/09/04 11:09:59;;;;;;;6.28;2.10;;;28.20;47.90;;;;;;4994041;28;20037;-56
2022/09/04 11:12:42;;;;;;;3.72;2.20;;;28.20;47.60;;;;;;5023647;28;20021;-55
2022/09/04 11:15:30;;;;;;;2.70;2.03;;;28.30;47.50;;;;;;5022652;28;20033;-59
2022/09/04 11:18:34;;;;;;;2.70;1.90;;;28.30;47.30;;;;;;5022092;28;20053;-56
2022/09/04 11:21:01;;;;;;;2.67;1.90;;;28.30;47.10;;;;;;5021873;28;20165;-59
2022/09/04 11:23:49;;;;;;;2.95;1.90;;;28.40;47.00;;;;;;5025178;28;20057;-56
2022/09/04 11:27:06;;;;;;;3.45;1.98;;;28.40;46.90;;;;;;5015701;28;20457;-55
2022/09/04 11:30:19;;;;;;;3.85;2.30;;;28.40;46.80;;;;;;5018491;28;20480;-57
2022/09/04 11:33:37;;;;;;;2.63;1.88;;;28.40;46.80;;;;;;4974908;28;20049;-55
2022/09/04 11:36:16;;;;;;;3.00;2.05;;;28.40;46.70;;;;;;5022212;28;20441;-57
2022/09/04 11:39:06;;;;;;;3.97;2.35;;;28.40;46.60;;;;;;5015809;28;20720;-56
2022/09/04 11:41:52;;;;;;;3.78;2.10;;;28.40;46.30;;;;;;5024995;28;20079;-56
2022/09/04 11:44:37;;;;;;;2.42;1.65;;;28.40;46.30;;;;;;4993507;28;20061;-59
2022/09/04 11:47:42;;;;;;;2.70;1.65;;;28.40;46.20;;;;;;5021834;28;20104;-58
2022/09/04 11:50:17;;;;;;;3.00;1.80;;;28.40;46.10;;;;;;5020451;28;20036;-58
2022/09/04 11:52:52;;;;;;;3.00;1.95;;;28.40;46.10;;;;;;5024748;28;20468;-57
2022/09/04 11:55:42;;;;;;;2.10;1.70;;;28.40;45.90;;;;;;5017501;28;20037;-57
2022/09/04 11:58:20;;;;;;;4.25;1.67;;;28.40;45.90;;;;;;5022962;28;20022;-58
2022/09/04 12:00:58;;;;;;;2.67;1.67;;;28.40;45.80;;;;;;5023572;28;20449;-57
2022/09/04 12:03:43;;;;;;;2.22;1.40;;;28.40;45.60;;;;;;5021017;28;20036;-55
2022/09/04 12:06:18;;;;;;;1.95;1.38;;;28.40;45.60;;;;;;5025269;28;20036;-55
2022/09/04 12:08:53;;;;;;;2.05;1.30;;;28.50;45.60;;;;;;5018633;28;20132;-52
2022/09/04 12:11:59;;;;;;;2.67;1.60;;;28.50;45.50;;;;;;5020587;28;20144;-56
2022/09/04 12:14:55;;;;;;;2.42;1.65;;;28.50;45.40;;;;;;5021805;28;20034;-55
2022/09/04 12:17:50;;;;;;;1.95;1.45;;;28.50;45.30;;;;;;5021020;28;20048;-52
2022/09/04 12:20:46;;;;;;;2.47;1.25;;;28.50;45.20;;;;;;5025623;28;20040;-51
2022/09/04 12:24:03;;;;;;;1.42;1.10;;;28.50;45.20;;;;;;5025564;28;20125;-56
2022/09/04 12:27:00;;;;;;;2.72;1.35;;;28.50;45.00;;;;;;4944781;29;20048;-58
2022/09/04 12:29:35;;;;;;;1.25;1.02;;;28.50;44.80;;;;;;5020941;28;20049;-56
2022/09/04 12:32:13;;;;;;;1.50;1.13;;;28.50;44.80;;;;;;5021482;28;20080;-53
2022/09/04 12:34:56;;;;;;;1.30;1.10;;;28.50;44.70;;;;;;5021183;28;20022;-57
2022/09/04 12:37:34;;;;;;;1.70;1.38;;;28.50;44.60;;;;;;5028210;28;20057;-57
2022/09/04 12:40:30;;;;;;;1.30;1.00;;;28.50;44.50;;;;;;5026542;28;20120;-52
2022/09/04 12:43:34;;;;;;;2.15;1.02;;;28.60;44.50;;;;;;5023406;28;20053;-55
2022/09/04 12:46:04;;;;;;;1.80;1.15;;;28.60;44.40;;;;;;5021558;28;20046;-61
2022/09/04 12:48:47;;;;;;;1.00;0.90;;;28.60;44.30;;;;;;5031208;28;20033;-57
2022/09/04 12:51:25;;;;;;;1.20;1.10;;;28.50;44.20;;;;;;5025255;28;20381;-57
2022/09/04 12:53:59;;;;;;;1.55;1.00;;;28.60;44.20;;;;;;5019802;28;20445;-53
2022/09/04 12:56:39;;;;;;;1.83;0.93;;;28.60;44.30;;;;;;5026539;28;20026;-57
2022/09/04 12:59:27;;;;;;;1.00;0.90;;;28.60;44.20;;;;;;5020765;28;20021;-51
2022/09/04 13:02:26;;;;;;;1.17;1.05;;;28.70;44.30;;;;;;5023076;28;20119;-50
2022/09/04 13:05:28;;;;;;;1.65;1.10;;;28.70;44.30;;;;;;5022051;28;20448;-51
2022/09/04 13:08:17;;;;;;;2.25;1.20;;;28.70;44.30;;;;;;4984243;28;20056;-50
2022/09/04 13:10:49;;;;;;;2.35;0.98;;;28.70;44.30;;;;;;5020332;28;20081;-55
2022/09/04 13:13:33;;;;;;;1.50;1.00;;;28.70;44.30;;;;;;5023012;28;20433;-53
2022/09/04 13:16:37;;;;;;;1.33;1.08;;;28.70;44.30;;;;;;5022890;28;20104;-52
2022/09/04 13:19:38;;;;;;;0.93;0.80;;;28.70;44.20;;;;;;5021351;28;20021;-49
2022/09/04 13:22:32;;;;;;;1.10;1.00;;;28.70;44.30;;;;;;4946257;29;20020;-50
2022/09/04 13:25:28;;;;;;;1.50;1.00;;;28.70;44.30;;;;;;5021763;28;20096;-52
2022/09/04 13:28:11;;;;;;;2.67;0.95;;;28.80;44.30;;;;;;5022478;28;20048;-52
2022/09/04 13:31:04;;;;;;;1.15;1.00;;;28.70;44.20;;;;;;5025509;28;20026;-54
2022/09/04 13:33:50;;;;;;;1.80;1.33;;;28.70;44.20;;;;;;5020276;28;20106;-53
2022/09/04 13:37:03;;;;;;;12.40;4.80;;;28.70;44.20;;;;;;5024034;28;20029;-51
2022/09/04 13:40:08;;;;;;;13.38;4.13;;;28.70;44.10;;;;;;5022968;28;20568;-55
2022/09/04 13:42:42;;;;;;;8.95;3.67;;;28.70;44.10;;;;;;5020208;28;20037;-53
2022/09/04 13:45:22;;;;;;;6.65;3.08;;;28.70;44.10;;;;;;5021618;28;20025;-52
2022/09/04 13:48:10;;;;;;;7.57;3.20;;;28.70;44.00;;;;;;5020174;28;20789;-49
2022/09/04 13:50:48;;;;;;;5.00;2.78;;;28.60;43.90;;;;;;5027428;28;20033;-55
2022/09/04 13:53:21;;;;;;;9.35;3.13;;;28.60;43.80;;;;;;5026995;28;20071;-52
2022/09/04 13:55:58;;;;;;;4.25;2.28;;;28.60;43.70;;;;;;5018671;28;20083;-51
2022/09/04 13:58:32;;;;;;;4.15;2.22;;;28.60;43.60;;;;;;5019750;28;20023;-50
2022/09/04 14:00:59;;;;;;;;;;;28.60;43.60;;;;;;5022220;28;20044;-52
2022/09/04 14:03:53;;;;;;;3.95;2.00;;;28.60;43.60;;;;;;5019691;28;19927;-49
2022/09/04 14:06:22;;;;;;;3.53;1.97;;;28.60;43.60;;;;;;5026109;28;20049;-49
2022/09/04 14:08:52;;;;;;;3.83;1.80;;;28.60;43.50;;;;;;5022704;28;20021;-49
2022/09/04 14:11:49;;;;;;;3.97;1.80;;;28.60;43.50;;;;;;5022546;28;20053;-51
2022/09/04 14:14:47;;;;;;;3.03;1.80;;;28.60;43.50;;;;;;5024335;28;20105;-50
2022/09/04 14:17:19;;;;;;;2.78;1.85;;;28.60;43.40;;;;;;5022301;28;20029;-55
2022/09/04 14:20:13;;;;;;;4.88;1.52;;;28.50;43.30;;;;;;5022221;28;20025;-54
2022/09/04 14:22:44;;;;;;;;;;;28.60;43.40;;;;;;5022242;28;20465;-51
2022/09/04 14:25:49;;;;;;;3.85;1.42;;;28.50;43.30;;;;;;5016851;28;19909;-51
2022/09/04 14:28:15;;;;;;;3.65;1.42;;;28.50;43.20;;;;;;5022220;28;20055;-51
2022/09/04 14:31:09;;;;;;;2.53;1.40;;;28.50;43.20;;;;;;5018758;28;20517;-56